SBBRYZYX KWBCYMYX SOZZMAMX SYZZMAMX TBPBYMYX TNCCYMYX

TNCAYMYX TFFFYMYX TFFRYMYX TTPPYMYX EGZZMNAM

280500 SMJPYMYX

FTSM20 SMJP 280400

TAF AMD SMJP 280500Z 2806/2906 07003KT 9000 BKN003 TX33/2818Z TN22/2810Z BECMG 2807/2808 0800 FG FM1200 10010KT 9999 SCT015 FEW018CB SCT030 TEMPO 2816/2822 4000 TSRA BECMG 2900/2902 VRB03KT FEW012 SCT025=

 

 

TAF SMZO 280400Z 2806/2906 08003KT 9999 FEW015 SCT035 TX33/2818Z TN25/2810Z FM1200 10012KT 9999 SCT015 FEW018CB SCT030 TEMPO 2815/2821 4000 TSRA BECMG 2900/2902 VRB03KT FEW012 SCT025=

 

 

TW

NOVEMBER 28, 2014